PWSweather.com
Personal Weather Stations
Station Observations
KKSTOPEK1
South Central , Topeka, KS 66611

South Central Topeka, KS 66611

Lat: 39.03, Lon: -95.71

Elevation: 945

Station Type: Davis Vantage Vue

http://tallgrasspixels.net/wx/wx.html

High Low Average
Temperature 87.0°F30.6°F 70.6°F21.4°F 75.6°F24.2°F
Dew Point 70.2°F21.2°F 64.2°F17.9°F 67.3°F19.6°F
Winds 3.4 mph WSW5.5 mph WSW Calm Calm 0.4 mph 0.6 mph
Wind Gusts 9.0 mph14.5 mph -- 1.0 mph1.6 mph
Humidity 95% 48% 77%
Pressure 29.84 in1010.50 in 29.72 in1006.40 in -
Precipitation 0.02 in0.50 in - -
Hour Temp Dew Point Humidity Winds Wind Gusts Pressure Precip Precip Rate Daily Precip Total
12:00 AM 77.7°F25.4°C 67.5°F19.7°C 71% Calm Calm -- 29.81 in1009.5 mb 0.00 in0.0 mm 0.00 in/hr0.0 mm/hr 0.00 in0.0 mm
12:10 AM 78.1°F25.6°C 65.4°F18.6°C 65% Calm Calm -- 29.80 in1009.1 mb 0.00 in0.0 mm 0.00 in/hr0.0 mm/hr 0.00 in0.0 mm
12:20 AM 78.8°F26.0°C 65.6°F18.7°C 64% Calm Calm -- 29.81 in1009.5 mb 0.00 in0.0 mm 0.00 in/hr0.0 mm/hr 0.00 in0.0 mm
12:30 AM 78.9°F26.1°C 64.3°F17.9°C 61% Calm Calm -- 29.80 in1009.1 mb 0.00 in0.0 mm 0.00 in/hr0.0 mm/hr 0.00 in0.0 mm
12:40 AM 79.0°F26.1°C 64.4°F18.0°C 61% Calm Calm -- 29.81 in1009.5 mb 0.00 in0.0 mm 0.00 in/hr0.0 mm/hr 0.00 in0.0 mm
12:50 AM 78.9°F26.1°C 64.3°F17.9°C 61% Calm Calm -- 29.80 in1009.1 mb 0.00 in0.0 mm 0.00 in/hr0.0 mm/hr 0.00 in0.0 mm
01:00 AM 79.0°F26.1°C 64.4°F18.0°C 61% 0.2 mph W0.3 kmh W 2.0 mph3.2 kmh 29.81 in1009.5 mb 0.00 in0.0 mm 0.00 in/hr0.0 mm/hr 0.00 in0.0 mm
01:10 AM 78.7°F25.9°C 64.6°F18.1°C 62% Calm Calm -- 29.80 in1009.1 mb 0.00 in0.0 mm 0.00 in/hr0.0 mm/hr 0.00 in0.0 mm
01:20 AM 78.1°F25.6°C 64.5°F18.1°C 63% Calm Calm -- 29.80 in1009.1 mb 0.00 in0.0 mm 0.00 in/hr0.0 mm/hr 0.00 in0.0 mm
01:30 AM 77.5°F25.3°C 64.4°F18.0°C 64% Calm Calm -- 29.80 in1009.1 mb 0.00 in0.0 mm 0.00 in/hr0.0 mm/hr 0.00 in0.0 mm
01:40 AM 76.9°F24.9°C 64.2°F17.9°C 65% Calm Calm -- 29.79 in1008.8 mb 0.00 in0.0 mm 0.00 in/hr0.0 mm/hr 0.00 in0.0 mm
01:50 AM 76.4°F24.7°C 64.6°F18.1°C 67% Calm Calm -- 29.79 in1008.8 mb 0.00 in0.0 mm 0.00 in/hr0.0 mm/hr 0.00 in0.0 mm
02:00 AM 76.2°F24.6°C 64.4°F18.0°C 67% Calm Calm -- 29.79 in1008.8 mb 0.00 in0.0 mm 0.00 in/hr0.0 mm/hr 0.00 in0.0 mm
02:10 AM 75.9°F24.4°C 64.6°F18.1°C 68% Calm Calm -- 29.79 in1008.8 mb 0.00 in0.0 mm 0.00 in/hr0.0 mm/hr 0.00 in0.0 mm
02:20 AM 75.8°F24.3°C 64.9°F18.3°C 69% Calm Calm -- 29.78 in1008.5 mb 0.00 in0.0 mm 0.00 in/hr0.0 mm/hr 0.00 in0.0 mm
02:30 AM 75.5°F24.2°C 65.0°F18.3°C 70% Calm Calm -- 29.79 in1008.8 mb 0.00 in0.0 mm 0.00 in/hr0.0 mm/hr 0.00 in0.0 mm
02:40 AM 75.2°F24.0°C 65.1°F18.4°C 71% Calm Calm -- 29.77 in1008.1 mb 0.00 in0.0 mm 0.00 in/hr0.0 mm/hr 0.00 in0.0 mm
02:50 AM 74.9°F23.8°C 65.3°F18.5°C 72% Calm Calm -- 29.77 in1008.1 mb 0.00 in0.0 mm 0.00 in/hr0.0 mm/hr 0.00 in0.0 mm
03:00 AM 74.7°F23.7°C 65.1°F18.4°C 72% Calm Calm -- 29.77 in1008.1 mb 0.00 in0.0 mm 0.00 in/hr0.0 mm/hr 0.00 in0.0 mm
03:10 AM 74.4°F23.6°C 65.2°F18.4°C 73% Calm Calm -- 29.77 in1008.1 mb 0.00 in0.0 mm 0.00 in/hr0.0 mm/hr 0.00 in0.0 mm
03:20 AM 74.4°F23.6°C 65.6°F18.7°C 74% Calm Calm -- 29.77 in1008.1 mb 0.00 in0.0 mm 0.00 in/hr0.0 mm/hr 0.00 in0.0 mm
03:30 AM 74.4°F23.6°C 65.6°F18.7°C 74% Calm Calm -- 29.77 in1008.1 mb 0.00 in0.0 mm 0.00 in/hr0.0 mm/hr 0.00 in0.0 mm
03:40 AM 74.5°F23.6°C 65.7°F18.7°C 74% 0.3 mph ESE0.5 kmh ESE -- 29.77 in1008.1 mb 0.00 in0.0 mm 0.00 in/hr0.0 mm/hr 0.00 in0.0 mm
03:50 AM 75.1°F23.9°C 65.8°F18.8°C 73% 3.4 mph WSW5.5 kmh WSW 5.0 mph8.0 kmh 29.77 in1008.1 mb 0.00 in0.0 mm 0.00 in/hr0.0 mm/hr 0.00 in0.0 mm
04:00 AM 75.1°F23.9°C 66.2°F19.0°C 74% 0.3 mph SSE0.5 kmh SSE 1.0 mph1.6 kmh 29.78 in1008.5 mb 0.00 in0.0 mm 0.00 in/hr0.0 mm/hr 0.00 in0.0 mm
04:10 AM 74.7°F23.7°C 66.2°F19.0°C 75% Calm Calm -- 29.78 in1008.5 mb 0.00 in0.0 mm 0.00 in/hr0.0 mm/hr 0.00 in0.0 mm
04:20 AM 74.4°F23.6°C 66.3°F19.1°C 76% Calm Calm -- 29.79 in1008.8 mb 0.00 in0.0 mm 0.00 in/hr0.0 mm/hr 0.00 in0.0 mm
04:30 AM 74.4°F23.6°C 66.3°F19.1°C 76% Calm Calm -- 29.79 in1008.8 mb 0.00 in0.0 mm 0.00 in/hr0.0 mm/hr 0.00 in0.0 mm
04:40 AM 74.5°F23.6°C 66.4°F19.1°C 76% Calm Calm -- 29.80 in1009.1 mb 0.00 in0.0 mm 0.00 in/hr0.0 mm/hr 0.00 in0.0 mm
04:50 AM 74.6°F23.7°C 65.7°F18.7°C 74% Calm Calm 1.0 mph1.6 kmh 29.79 in1008.8 mb 0.00 in0.0 mm 0.00 in/hr0.0 mm/hr 0.00 in0.0 mm
05:00 AM 74.3°F23.5°C 65.9°F18.8°C 75% Calm Calm -- 29.79 in1008.8 mb 0.00 in0.0 mm 0.00 in/hr0.0 mm/hr 0.00 in0.0 mm
05:10 AM 73.7°F23.2°C 65.7°F18.7°C 76% Calm Calm -- 29.79 in1008.8 mb 0.00 in0.0 mm 0.00 in/hr0.0 mm/hr 0.00 in0.0 mm
05:20 AM 73.1°F22.8°C 65.1°F18.4°C 76% Calm Calm -- 29.79 in1008.8 mb 0.00 in0.0 mm 0.00 in/hr0.0 mm/hr 0.00 in0.0 mm
05:30 AM 72.9°F22.7°C 65.3°F18.5°C 77% Calm Calm -- 29.79 in1008.8 mb 0.00 in0.0 mm 0.00 in/hr0.0 mm/hr 0.00 in0.0 mm
05:40 AM 72.6°F22.6°C 65.3°F18.5°C 78% Calm Calm 1.0 mph1.6 kmh 29.79 in1008.8 mb 0.00 in0.0 mm 0.00 in/hr0.0 mm/hr 0.00 in0.0 mm
05:50 AM 72.4°F22.4°C 65.5°F18.6°C 79% Calm Calm -- 29.79 in1008.8 mb 0.00 in0.0 mm 0.00 in/hr0.0 mm/hr 0.00 in0.0 mm
06:00 AM 72.5°F22.5°C 65.2°F18.4°C 78% Calm Calm -- 29.79 in1008.8 mb 0.00 in0.0 mm 0.00 in/hr0.0 mm/hr 0.00 in0.0 mm
06:10 AM 72.3°F22.4°C 65.4°F18.6°C 79% Calm Calm 1.0 mph1.6 kmh 29.79 in1008.8 mb 0.00 in0.0 mm 0.00 in/hr0.0 mm/hr 0.00 in0.0 mm
06:20 AM 72.0°F22.2°C 65.2°F18.4°C 79% Calm Calm -- 29.79 in1008.8 mb 0.00 in0.0 mm 0.00 in/hr0.0 mm/hr 0.00 in0.0 mm
06:30 AM 71.8°F22.1°C 65.3°F18.5°C 80% Calm Calm -- 29.79 in1008.8 mb 0.00 in0.0 mm 0.00 in/hr0.0 mm/hr 0.00 in0.0 mm
06:40 AM 71.9°F22.2°C 65.4°F18.6°C 80% Calm Calm -- 29.79 in1008.8 mb 0.00 in0.0 mm 0.00 in/hr0.0 mm/hr 0.00 in0.0 mm
06:50 AM 71.8°F22.1°C 66.0°F18.9°C 82% Calm Calm -- 29.79 in1008.8 mb 0.00 in0.0 mm 0.00 in/hr0.0 mm/hr 0.00 in0.0 mm
07:00 AM 71.8°F22.1°C 66.0°F18.9°C 82% Calm Calm -- 29.80 in1009.1 mb 0.00 in0.0 mm 0.00 in/hr0.0 mm/hr 0.00 in0.0 mm
07:10 AM 71.8°F22.1°C 66.0°F18.9°C 82% Calm Calm -- 29.79 in1008.8 mb 0.00 in0.0 mm 0.00 in/hr0.0 mm/hr 0.00 in0.0 mm
07:20 AM 71.7°F22.1°C 66.2°F19.0°C 83% Calm Calm -- 29.80 in1009.1 mb 0.00 in0.0 mm 0.00 in/hr0.0 mm/hr 0.00 in0.0 mm
07:30 AM 71.8°F22.1°C 66.4°F19.1°C 83% Calm Calm -- 29.80 in1009.1 mb 0.00 in0.0 mm 0.00 in/hr0.0 mm/hr 0.00 in0.0 mm
07:40 AM 72.3°F22.4°C 66.8°F19.3°C 83% Calm Calm 1.0 mph1.6 kmh 29.81 in1009.5 mb 0.00 in0.0 mm 0.00 in/hr0.0 mm/hr 0.00 in0.0 mm
07:50 AM 72.4°F22.4°C 66.6°F19.2°C 82% Calm Calm 1.0 mph1.6 kmh 29.81 in1009.5 mb 0.00 in0.0 mm 0.00 in/hr0.0 mm/hr 0.00 in0.0 mm
08:00 AM 72.2°F22.3°C 66.8°F19.3°C 83% Calm Calm 1.0 mph1.6 kmh 29.82 in1009.8 mb 0.00 in0.0 mm 0.00 in/hr0.0 mm/hr 0.00 in0.0 mm
08:10 AM 72.1°F22.3°C 66.6°F19.2°C 83% 0.2 mph WSW0.3 kmh WSW 2.0 mph3.2 kmh 29.83 in1010.2 mb 0.00 in0.0 mm 0.00 in/hr0.0 mm/hr 0.00 in0.0 mm
08:20 AM 72.0°F22.2°C 66.5°F19.2°C 83% 0.1 mph WSW0.2 kmh WSW 1.0 mph1.6 kmh 29.83 in1010.2 mb 0.00 in0.0 mm 0.00 in/hr0.0 mm/hr 0.00 in0.0 mm
08:30 AM 72.2°F22.3°C 66.7°F19.3°C 83% 0.5 mph SW0.8 kmh SW 2.0 mph3.2 kmh 29.83 in1010.2 mb 0.00 in0.0 mm 0.00 in/hr0.0 mm/hr 0.00 in0.0 mm
08:40 AM 72.2°F22.3°C 67.1°F19.5°C 84% 1.4 mph ENE2.3 kmh ENE 3.0 mph4.8 kmh 29.82 in1009.8 mb 0.00 in0.0 mm 0.00 in/hr0.0 mm/hr 0.00 in0.0 mm
08:50 AM 71.6°F22.0°C 67.5°F19.7°C 87% 0.1 mph NNE0.2 kmh NNE -- 29.82 in1009.8 mb 0.00 in0.0 mm 0.00 in/hr0.0 mm/hr 0.00 in0.0 mm
09:00 AM 71.1°F21.7°C 67.4°F19.7°C 88% Calm Calm 1.0 mph1.6 kmh 29.82 in1009.8 mb 0.00 in0.0 mm 0.00 in/hr0.0 mm/hr 0.00 in0.0 mm
09:10 AM 71.1°F21.7°C 67.7°F19.8°C 89% 0.3 mph SW0.5 kmh SW 1.0 mph1.6 kmh 29.82 in1009.8 mb 0.00 in0.0 mm 0.00 in/hr0.0 mm/hr 0.00 in0.0 mm
09:20 AM 71.0°F21.7°C 67.6°F19.8°C 89% 0.3 mph WSW0.5 kmh WSW 1.0 mph1.6 kmh 29.83 in1010.2 mb 0.00 in0.0 mm 0.00 in/hr0.0 mm/hr 0.00 in0.0 mm
09:40 AM 70.9°F21.6°C 67.8°F19.9°C 90% 0.3 mph SW0.5 kmh SW 1.0 mph1.6 kmh 29.83 in1010.2 mb 0.00 in0.0 mm 0.00 in/hr0.0 mm/hr 0.00 in0.0 mm
09:50 AM 70.9°F21.6°C 67.8°F19.9°C 90% Calm Calm -- 29.83 in1010.2 mb 0.00 in0.0 mm 0.00 in/hr0.0 mm/hr 0.00 in0.0 mm
10:10 AM 70.6°F21.4°C 67.9°F19.9°C 91% 0.7 mph SW1.1 kmh SW 1.0 mph1.6 kmh 29.84 in1010.5 mb 0.00 in0.0 mm 0.00 in/hr0.0 mm/hr 0.01 in0.3 mm
10:20 AM 71.0°F21.7°C 68.6°F20.3°C 92% Calm Calm 1.0 mph1.6 kmh 29.83 in1010.2 mb 0.00 in0.0 mm 0.00 in/hr0.0 mm/hr 0.01 in0.3 mm
10:30 AM 71.1°F21.7°C 68.3°F20.2°C 91% Calm Calm 1.0 mph1.6 kmh 29.83 in1010.2 mb 0.00 in0.0 mm 0.00 in/hr0.0 mm/hr 0.01 in0.3 mm
10:40 AM 71.6°F22.0°C 68.5°F20.3°C 90% Calm Calm -- 29.82 in1009.8 mb 0.00 in0.0 mm 0.00 in/hr0.0 mm/hr 0.01 in0.3 mm
10:50 AM 72.2°F22.3°C 68.8°F20.4°C 89% 0.5 mph WSW0.8 kmh WSW -- 29.82 in1009.8 mb 0.00 in0.0 mm 0.00 in/hr0.0 mm/hr 0.01 in0.3 mm
11:00 AM 73.0°F22.8°C 68.5°F20.3°C 86% 0.2 mph SW0.3 kmh SW -- 29.82 in1009.8 mb 0.00 in0.0 mm 0.00 in/hr0.0 mm/hr 0.01 in0.3 mm
11:10 AM 73.9°F23.3°C 68.8°F20.4°C 84% 0.6 mph WSW1.0 kmh WSW 1.0 mph1.6 kmh 29.82 in1009.8 mb 0.00 in0.0 mm 0.00 in/hr0.0 mm/hr 0.01 in0.3 mm
11:20 AM 74.9°F23.8°C 69.4°F20.8°C 83% 2.0 mph SE3.2 kmh SE 3.0 mph4.8 kmh 29.82 in1009.8 mb 0.00 in0.0 mm 0.00 in/hr0.0 mm/hr 0.01 in0.3 mm
11:30 AM 76.0°F24.4°C 68.2°F20.1°C 77% 0.7 mph W1.1 kmh W 3.0 mph4.8 kmh 29.82 in1009.8 mb 0.00 in0.0 mm 0.00 in/hr0.0 mm/hr 0.01 in0.3 mm
11:40 AM 76.5°F24.7°C 69.1°F20.6°C 78% 0.5 mph S0.8 kmh S 1.0 mph1.6 kmh 29.82 in1009.8 mb 0.00 in0.0 mm 0.00 in/hr0.0 mm/hr 0.01 in0.3 mm
11:50 AM 77.0°F25.0°C 69.6°F20.9°C 78% Calm Calm -- 29.82 in1009.8 mb 0.00 in0.0 mm 0.00 in/hr0.0 mm/hr 0.01 in0.3 mm
12:00 PM 77.4°F25.2°C 69.2°F20.7°C 76% 1.8 mph ESE2.9 kmh ESE 4.0 mph6.4 kmh 29.82 in1009.8 mb 0.00 in0.0 mm 0.00 in/hr0.0 mm/hr 0.01 in0.3 mm
12:10 PM 77.3°F25.2°C 69.1°F20.6°C 76% 0.1 mph WNW0.2 kmh WNW 3.0 mph4.8 kmh 29.81 in1009.5 mb 0.00 in0.0 mm 0.00 in/hr0.0 mm/hr 0.01 in0.3 mm
12:20 PM 77.8°F25.4°C 68.8°F20.4°C 74% 0.8 mph SW1.3 kmh SW 1.0 mph1.6 kmh 29.81 in1009.5 mb 0.00 in0.0 mm 0.00 in/hr0.0 mm/hr 0.01 in0.3 mm
12:30 PM 78.1°F25.6°C 69.1°F20.6°C 74% 1.2 mph SSE1.9 kmh SSE 1.0 mph1.6 kmh 29.80 in1009.1 mb 0.00 in0.0 mm 0.00 in/hr0.0 mm/hr 0.01 in0.3 mm
12:40 PM 78.7°F25.9°C 69.4°F20.8°C 73% 0.6 mph E1.0 kmh E 2.0 mph3.2 kmh 29.80 in1009.1 mb 0.00 in0.0 mm 0.00 in/hr0.0 mm/hr 0.01 in0.3 mm
12:50 PM 79.3°F26.3°C 69.5°F20.8°C 72% 2.4 mph E3.9 kmh E 4.0 mph6.4 kmh 29.79 in1008.8 mb 0.00 in0.0 mm 0.00 in/hr0.0 mm/hr 0.01 in0.3 mm
01:00 PM 79.7°F26.5°C 69.0°F20.6°C 70% 0.5 mph SE0.8 kmh SE 4.0 mph6.4 kmh 29.79 in1008.8 mb 0.00 in0.0 mm 0.00 in/hr0.0 mm/hr 0.01 in0.3 mm
01:10 PM 80.2°F26.8°C 68.3°F20.2°C 67% 1.1 mph SE1.8 kmh SE 2.0 mph3.2 kmh 29.78 in1008.5 mb 0.00 in0.0 mm 0.00 in/hr0.0 mm/hr 0.01 in0.3 mm
01:20 PM 80.9°F27.2°C 68.1°F20.1°C 65% 1.0 mph SE1.6 kmh SE 1.0 mph1.6 kmh 29.78 in1008.5 mb 0.00 in0.0 mm 0.00 in/hr0.0 mm/hr 0.01 in0.3 mm
01:30 PM 81.5°F27.5°C 67.7°F19.8°C 63% 1.6 mph SE2.6 kmh SE 4.0 mph6.4 kmh 29.78 in1008.5 mb 0.00 in0.0 mm 0.00 in/hr0.0 mm/hr 0.01 in0.3 mm
01:40 PM 82.6°F28.1°C 67.8°F19.9°C 61% 1.0 mph ESE1.6 kmh ESE 3.0 mph4.8 kmh 29.77 in1008.1 mb 0.00 in0.0 mm 0.00 in/hr0.0 mm/hr 0.01 in0.3 mm
01:50 PM 83.2°F28.4°C 68.3°F20.2°C 61% 1.8 mph S2.9 kmh S 4.0 mph6.4 kmh 29.77 in1008.1 mb 0.00 in0.0 mm 0.00 in/hr0.0 mm/hr 0.01 in0.3 mm
02:00 PM 84.2°F29.0°C 67.8°F19.9°C 58% 1.1 mph SSW1.8 kmh SSW 2.0 mph3.2 kmh 29.77 in1008.1 mb 0.00 in0.0 mm 0.00 in/hr0.0 mm/hr 0.01 in0.3 mm
02:10 PM 84.5°F29.2°C 68.1°F20.1°C 58% 2.2 mph SE3.5 kmh SE 3.0 mph4.8 kmh 29.76 in1007.8 mb 0.00 in0.0 mm 0.00 in/hr0.0 mm/hr 0.01 in0.3 mm
02:20 PM 84.8°F29.3°C 67.9°F19.9°C 57% 1.0 mph SE1.6 kmh SE 2.0 mph3.2 kmh 29.77 in1008.1 mb 0.00 in0.0 mm 0.00 in/hr0.0 mm/hr 0.01 in0.3 mm
02:30 PM 85.0°F29.4°C 67.1°F19.5°C 55% 2.3 mph SW3.7 kmh SW 3.0 mph4.8 kmh 29.76 in1007.8 mb 0.00 in0.0 mm 0.00 in/hr0.0 mm/hr 0.01 in0.3 mm
02:40 PM 84.4°F29.1°C 67.5°F19.7°C 57% 1.3 mph W2.1 kmh W 2.0 mph3.2 kmh 29.76 in1007.8 mb 0.00 in0.0 mm 0.00 in/hr0.0 mm/hr 0.01 in0.3 mm
02:50 PM 85.1°F29.5°C 67.1°F19.5°C 55% 1.8 mph W2.9 kmh W 4.0 mph6.4 kmh 29.76 in1007.8 mb 0.00 in0.0 mm 0.00 in/hr0.0 mm/hr 0.01 in0.3 mm
03:00 PM 86.0°F30.0°C 67.4°F19.7°C 54% 1.4 mph SSW2.3 kmh SSW 1.0 mph1.6 kmh 29.75 in1007.5 mb 0.00 in0.0 mm 0.00 in/hr0.0 mm/hr 0.01 in0.3 mm
03:10 PM 85.9°F29.9°C 67.3°F19.6°C 54% 2.2 mph ESE3.5 kmh ESE 2.0 mph3.2 kmh 29.75 in1007.5 mb 0.00 in0.0 mm 0.00 in/hr0.0 mm/hr 0.01 in0.3 mm
03:20 PM 86.1°F30.1°C 68.0°F20.0°C 55% 2.5 mph SW4.0 kmh SW 4.0 mph6.4 kmh 29.74 in1007.1 mb 0.00 in0.0 mm 0.00 in/hr0.0 mm/hr 0.01 in0.3 mm
03:30 PM 86.4°F30.2°C 68.3°F20.2°C 55% 1.4 mph SE2.3 kmh SE 3.0 mph4.8 kmh 29.74 in1007.1 mb 0.00 in0.0 mm 0.00 in/hr0.0 mm/hr 0.01 in0.3 mm
03:40 PM 86.1°F30.1°C 68.1°F20.1°C 55% 1.4 mph SSW2.3 kmh SSW 3.0 mph4.8 kmh 29.73 in1006.8 mb 0.00 in0.0 mm 0.00 in/hr0.0 mm/hr 0.01 in0.3 mm
03:50 PM 86.7°F30.4°C 68.6°F20.3°C 55% 1.6 mph WSW2.6 kmh WSW 5.0 mph8.0 kmh 29.73 in1006.8 mb 0.00 in0.0 mm 0.00 in/hr0.0 mm/hr 0.01 in0.3 mm
04:00 PM 87.0°F30.6°C 67.8°F19.9°C 53% 0.4 mph S0.6 kmh S 2.0 mph3.2 kmh 29.73 in1006.8 mb 0.00 in0.0 mm 0.00 in/hr0.0 mm/hr 0.01 in0.3 mm
06:10 PM 86.9°F30.5°C 64.9°F18.3°C 48% 1.2 mph ENE1.9 kmh ENE 2.0 mph3.2 kmh 29.72 in1006.4 mb 0.00 in0.0 mm 0.00 in/hr0.0 mm/hr 0.01 in0.3 mm
06:20 PM 86.0°F30.0°C 66.3°F19.1°C 52% 1.7 mph W2.7 kmh W 9.0 mph14.5 kmh 29.73 in1006.8 mb 0.00 in0.0 mm 0.00 in/hr0.0 mm/hr 0.01 in0.3 mm
06:30 PM 83.0°F28.3°C 66.7°F19.3°C 58% 1.1 mph WSW1.8 kmh WSW 5.0 mph8.0 kmh 29.72 in1006.4 mb 0.00 in0.0 mm 0.00 in/hr0.0 mm/hr 0.01 in0.3 mm
06:40 PM 81.5°F27.5°C 67.2°F19.6°C 62% 1.1 mph NE1.8 kmh NE 3.0 mph4.8 kmh 29.73 in1006.8 mb 0.00 in0.0 mm 0.00 in/hr0.0 mm/hr 0.01 in0.3 mm
06:50 PM 80.5°F26.9°C 68.1°F20.1°C 66% 0.2 mph WSW0.3 kmh WSW 1.0 mph1.6 kmh 29.74 in1007.1 mb 0.00 in0.0 mm 0.00 in/hr0.0 mm/hr 0.01 in0.3 mm
07:30 PM 71.5°F21.9°C 67.8°F19.9°C 88% Calm Calm -- 29.75 in1007.5 mb 0.01 in0.3 mm 0.03 in/hr0.8 mm/hr 0.04 in1.0 mm
07:40 PM 71.1°F21.7°C 68.0°F20.0°C 90% Calm Calm -- 29.74 in1007.1 mb 0.00 in0.0 mm 0.00 in/hr0.0 mm/hr 0.04 in1.0 mm
08:00 PM 71.3°F21.8°C 69.2°F20.7°C 93% Calm Calm -- 29.74 in1007.1 mb 0.01 in0.3 mm 0.02 in/hr0.5 mm/hr 0.05 in1.3 mm
08:10 PM 71.2°F21.8°C 69.1°F20.6°C 93% 0.1 mph E0.2 kmh E 1.0 mph1.6 kmh 29.75 in1007.5 mb 0.00 in0.0 mm 0.00 in/hr0.0 mm/hr 0.05 in1.3 mm
08:20 PM 71.2°F21.8°C 68.4°F20.2°C 91% Calm Calm -- 29.75 in1007.5 mb 0.00 in0.0 mm 0.00 in/hr0.0 mm/hr 0.05 in1.3 mm
08:30 PM 71.1°F21.7°C 68.7°F20.4°C 92% Calm Calm -- 29.75 in1007.5 mb 0.00 in0.0 mm 0.00 in/hr0.0 mm/hr 0.05 in1.3 mm
08:40 PM 70.9°F21.6°C 68.4°F20.2°C 92% Calm Calm -- 29.75 in1007.5 mb 0.00 in0.0 mm 0.00 in/hr0.0 mm/hr 0.05 in1.3 mm
08:50 PM 70.9°F21.6°C 69.1°F20.6°C 94% Calm Calm -- 29.76 in1007.8 mb 0.00 in0.0 mm 0.00 in/hr0.0 mm/hr 0.05 in1.3 mm
09:00 PM 70.9°F21.6°C 69.1°F20.6°C 94% Calm Calm -- 29.77 in1008.1 mb 0.00 in0.0 mm 0.00 in/hr0.0 mm/hr 0.05 in1.3 mm
09:10 PM 70.9°F21.6°C 69.1°F20.6°C 94% Calm Calm -- 29.77 in1008.1 mb 0.00 in0.0 mm 0.00 in/hr0.0 mm/hr 0.05 in1.3 mm
09:20 PM 71.0°F21.7°C 69.5°F20.8°C 95% Calm Calm -- 29.78 in1008.5 mb 0.00 in0.0 mm 0.00 in/hr0.0 mm/hr 0.05 in1.3 mm
09:30 PM 71.1°F21.7°C 69.6°F20.9°C 95% Calm Calm -- 29.78 in1008.5 mb 0.00 in0.0 mm 0.00 in/hr0.0 mm/hr 0.05 in1.3 mm
09:40 PM 71.2°F21.8°C 69.7°F20.9°C 95% Calm Calm -- 29.79 in1008.8 mb 0.00 in0.0 mm 0.00 in/hr0.0 mm/hr 0.05 in1.3 mm
09:50 PM 71.3°F21.8°C 69.8°F21.0°C 95% Calm Calm -- 29.79 in1008.8 mb 0.00 in0.0 mm 0.00 in/hr0.0 mm/hr 0.05 in1.3 mm
10:00 PM 71.5°F21.9°C 70.0°F21.1°C 95% Calm Calm -- 29.79 in1008.8 mb 0.00 in0.0 mm 0.00 in/hr0.0 mm/hr 0.05 in1.3 mm
10:10 PM 71.5°F21.9°C 70.0°F21.1°C 95% Calm Calm -- 29.79 in1008.8 mb 0.00 in0.0 mm 0.00 in/hr0.0 mm/hr 0.05 in1.3 mm
10:20 PM 71.5°F21.9°C 70.0°F21.1°C 95% Calm Calm -- 29.80 in1009.1 mb 0.00 in0.0 mm 0.00 in/hr0.0 mm/hr 0.05 in1.3 mm
10:30 PM 71.5°F21.9°C 70.0°F21.1°C 95% 0.4 mph SE0.6 kmh SE 1.0 mph1.6 kmh 29.80 in1009.1 mb 0.00 in0.0 mm 0.00 in/hr0.0 mm/hr 0.05 in1.3 mm
10:40 PM 71.6°F22.0°C 70.1°F21.2°C 95% Calm Calm -- 29.80 in1009.1 mb 0.00 in0.0 mm 0.00 in/hr0.0 mm/hr 0.05 in1.3 mm
10:50 PM 71.7°F22.1°C 70.2°F21.2°C 95% Calm Calm -- 29.80 in1009.1 mb 0.00 in0.0 mm 0.00 in/hr0.0 mm/hr 0.05 in1.3 mm
11:00 PM 71.9°F22.2°C 70.1°F21.2°C 94% Calm Calm -- 29.81 in1009.5 mb 0.00 in0.0 mm 0.00 in/hr0.0 mm/hr 0.05 in1.3 mm
11:10 PM 71.7°F22.1°C 69.9°F21.1°C 94% Calm Calm -- 29.81 in1009.5 mb 0.00 in0.0 mm 0.00 in/hr0.0 mm/hr 0.05 in1.3 mm
11:20 PM 71.4°F21.9°C 69.6°F20.9°C 94% Calm Calm -- 29.82 in1009.8 mb 0.00 in0.0 mm 0.00 in/hr0.0 mm/hr 0.05 in1.3 mm
11:30 PM 71.2°F21.8°C 69.4°F20.8°C 94% Calm Calm -- 29.82 in1009.8 mb 0.00 in0.0 mm 0.00 in/hr0.0 mm/hr 0.05 in1.3 mm
11:40 PM 71.0°F21.7°C 69.2°F20.7°C 94% Calm Calm -- 29.82 in1009.8 mb 0.00 in0.0 mm 0.00 in/hr0.0 mm/hr 0.05 in1.3 mm
11:50 PM 70.8°F21.6°C 69.3°F20.7°C 95% Calm Calm -- 29.83 in1010.2 mb 0.00 in0.0 mm 0.00 in/hr0.0 mm/hr 0.05 in1.3 mm